Time;durP1;ratioP1;P1;durP2;ratioP2;P2;SDS_P1;SDS_P2;PMS_P1;PMS_P2;Temp;Humidity;BMP_temperature;BMP_pressure;BME280_temperature;BME280_humidity;BME280_pressure;Samples;Min_cycle;Max_cycle;Signal;HPM_P1;HPM_P2
2022/04/08 00:01:15;;;;;;;;;;;7.80;99.90;;;;;;5043973;28;19963;-74
2022/04/08 00:03:41;;;;;;;;;;;7.60;99.90;;;;;;5050482;28;19909;-74
2022/04/08 00:06:08;;;;;;;;;;;7.60;99.90;;;;;;5050486;28;19916;-74
2022/04/08 00:08:34;;;;;;;;;;;7.70;99.90;;;;;;5050628;28;19909;-74
2022/04/08 00:11:00;;;;;;;;;;;7.60;99.90;;;;;;5050434;28;19912;-76
2022/04/08 00:13:25;;;;;;;;;;;7.70;99.90;;;;;;5050424;28;19916;-74
2022/04/08 00:15:51;;;;;;;;;;;7.70;99.90;;;;;;5050663;28;19915;-74
2022/04/08 00:18:16;;;;;;;;;;;7.50;99.90;;;;;;5050440;28;19928;-75
2022/04/08 00:20:42;;;;;;;;;;;7.50;99.90;;;;;;5050385;28;19995;-75
2022/04/08 00:23:07;;;;;;;;;;;7.40;99.90;;;;;;5049947;28;19909;-76
2022/04/08 00:25:33;;;;;;;;;;;7.40;99.90;;;;;;5050940;28;20235;-74
2022/04/08 00:27:58;;;;;;;;;;;7.40;99.90;;;;;;5050599;28;19916;-74
2022/04/08 00:30:24;;;;;;;;;;;7.40;99.90;;;;;;5054871;28;19917;-73
2022/04/08 00:32:51;;;;;;;;;;;7.40;99.90;;;;;;5056290;28;19909;-73
2022/04/08 00:35:17;;;;;;;;;;;7.40;99.90;;;;;;5053774;28;19915;-74
2022/04/08 00:37:42;;;;;;;;;;;7.50;99.90;;;;;;5054005;28;20289;-75
2022/04/08 00:40:08;;;;;;;;;;;7.40;99.90;;;;;;5053806;28;20396;-74
2022/04/08 00:42:33;;;;;;;;;;;7.40;99.90;;;;;;5053876;28;19909;-75
2022/04/08 00:44:59;;;;;;;;;;;7.40;99.90;;;;;;5053593;28;19916;-74
2022/04/08 00:47:25;;;;;;;;;;;7.40;99.90;;;;;;5053866;28;19944;-75
2022/04/08 00:49:51;;;;;;;;;;;7.40;99.90;;;;;;5052691;28;19996;-74
2022/04/08 00:52:17;;;;;;;;;;;7.40;99.90;;;;;;5051985;28;19909;-74
2022/04/08 00:54:44;;;;;;;;;;;7.50;99.90;;;;;;5053371;28;19913;-76
2022/04/08 00:57:09;;;;;;;;;;;7.50;99.90;;;;;;5053680;28;19909;-74
2022/04/08 00:59:35;;;;;;;;;;;7.50;99.90;;;;;;5053769;28;19920;-75
2022/04/08 01:02:01;;;;;;;;;;;7.40;99.90;;;;;;5053484;28;20000;-74
2022/04/08 01:04:27;;;;;;;;;;;7.40;99.90;;;;;;5053226;28;20148;-74
2022/04/08 01:06:53;;;;;;;;;;;7.20;99.90;;;;;;5053500;28;19913;-75
2022/04/08 01:09:19;;;;;;;;;;;7.30;99.90;;;;;;5053392;28;20318;-76
2022/04/08 01:11:44;;;;;;;;;;;7.20;99.90;;;;;;5053303;28;19967;-74
2022/04/08 01:14:10;;;;;;;;;;;7.10;99.90;;;;;;5049786;28;20046;-74
2022/04/08 01:16:36;;;;;;;;;;;7.10;99.90;;;;;;5053538;28;20377;-75
2022/04/08 01:19:02;;;;;;;;;;;7.10;99.90;;;;;;5053136;28;19924;-75
2022/04/08 01:21:28;;;;;;;;;;;7.00;99.90;;;;;;5048720;28;19912;-75
2022/04/08 01:23:55;;;;;;;;;;;7.00;99.90;;;;;;5052645;28;20332;-75
2022/04/08 01:26:20;;;;;;;;;;;7.00;99.90;;;;;;5053167;28;19909;-74
2022/04/08 01:28:47;;;;;;;;;;;7.10;99.90;;;;;;5053304;28;20304;-74
2022/04/08 01:31:13;;;;;;;;;;;7.20;99.90;;;;;;5052940;28;19916;-74
2022/04/08 01:33:38;;;;;;;;;;;7.00;99.90;;;;;;5051699;28;20250;-73
2022/04/08 01:36:04;;;;;;;;;;;7.30;99.90;;;;;;5053011;28;19954;-74
2022/04/08 01:38:29;;;;;;;;;;;7.40;99.90;;;;;;5052879;28;20645;-75
2022/04/08 01:40:55;;;;;;;;;;;7.40;99.90;;;;;;5052434;28;20095;-74
2022/04/08 01:43:20;;;;;;;;;;;7.30;99.80;;;;;;5052770;28;20004;-74
2022/04/08 01:45:46;;;;;;;;;;;7.30;99.90;;;;;;5052760;28;20361;-75
2022/04/08 01:48:11;;;;;;;;;;;7.30;99.80;;;;;;5052612;28;19913;-74
2022/04/08 01:50:37;;;;;;;;;;;7.20;99.90;;;;;;5047356;28;20270;-74
2022/04/08 01:53:02;;;;;;;;;;;7.20;99.90;;;;;;5052101;28;20416;-74
2022/04/08 01:55:28;;;;;;;;;;;7.20;99.90;;;;;;5052394;28;19915;-75
2022/04/08 01:57:53;;;;;;;;;;;7.20;99.90;;;;;;5052588;28;19939;-74
2022/04/08 02:00:19;;;;;;;;;;;7.00;99.90;;;;;;5052508;28;19913;-74
2022/04/08 02:02:45;;;;;;;;;;;7.00;99.90;;;;;;5052173;28;20072;-75
2022/04/08 02:05:11;;;;;;;;;;;7.00;99.90;;;;;;5052149;28;19971;-74
2022/04/08 02:07:36;;;;;;;;;;;7.00;99.90;;;;;;5052177;28;19960;-74
2022/04/08 02:10:03;;;;;;;;;;;7.00;99.90;;;;;;5052273;28;20381;-75
2022/04/08 02:12:28;;;;;;;;;;;7.00;99.90;;;;;;5052159;28;19938;-75
2022/04/08 02:14:54;;;;;;;;;;;6.80;99.90;;;;;;5052260;28;19909;-75
2022/04/08 02:17:20;;;;;;;;;;;6.70;99.90;;;;;;5052020;28;19920;-75
2022/04/08 02:19:45;;;;;;;;;;;6.70;99.90;;;;;;5051865;28;19913;-75
2022/04/08 02:22:11;;;;;;;;;;;6.80;99.90;;;;;;5051414;28;19909;-77
2022/04/08 02:24:37;;;;;;;;;;;6.60;99.90;;;;;;5051597;28;20381;-76
2022/04/08 02:27:06;;;;;;;;;;;6.60;99.90;;;;;;5051986;28;19944;-75
2022/04/08 02:29:32;;;;;;;;;;;6.70;99.90;;;;;;5052004;28;19916;-75
2022/04/08 02:31:58;;;;;;;;;;;6.70;99.90;;;;;;5051677;28;19909;-75
2022/04/08 02:34:24;;;;;;;;;;;6.70;99.90;;;;;;5050213;28;20362;-74
2022/04/08 02:36:50;;;;;;;;;;;6.70;99.90;;;;;;5051728;28;20050;-75
2022/04/08 02:39:16;;;;;;;;;;;6.60;99.90;;;;;;5052001;28;19909;-74
2022/04/08 02:41:41;;;;;;;;;;;6.50;99.90;;;;;;5044990;28;20267;-75
2022/04/08 02:44:08;;;;;;;;;;;6.40;99.90;;;;;;5049990;28;20388;-74
2022/04/08 02:46:34;;;;;;;;;;;6.40;99.90;;;;;;5051717;28;19908;-74
2022/04/08 02:49:00;;;;;;;;;;;6.30;99.90;;;;;;5051529;28;19966;-74
2022/04/08 02:51:25;;;;;;;;;;;6.30;99.90;;;;;;5047176;28;20310;-75
2022/04/08 02:53:51;;;;;;;;;;;6.30;99.90;;;;;;5049333;28;19915;-74
2022/04/08 02:56:16;;;;;;;;;;;6.50;99.90;;;;;;5051177;28;20262;-75
2022/04/08 02:58:42;;;;;;;;;;;6.70;99.70;;;;;;5051477;28;20262;-75
2022/04/08 03:01:07;;;;;;;;;;;6.70;99.90;;;;;;5051213;28;19909;-74
2022/04/08 03:03:33;;;;;;;;;;;6.60;99.90;;;;;;5050931;28;20612;-74
2022/04/08 03:05:58;;;;;;;;;;;6.60;99.90;;;;;;5051227;28;19913;-74
2022/04/08 03:08:24;;;;;;;;;;;6.60;99.90;;;;;;5051259;28;19912;-74
2022/04/08 03:10:49;;;;;;;;;;;6.60;99.60;;;;;;5051211;28;19909;-74
2022/04/08 03:13:15;;;;;;;;;;;6.50;99.90;;;;;;5050852;28;19935;-75
2022/04/08 03:15:41;;;;;;;;;;;6.40;99.90;;;;;;5051266;28;19912;-74
2022/04/08 03:18:06;;;;;;;;;;;6.30;99.90;;;;;;5050970;28;20357;-75
2022/04/08 03:20:32;;;;;;;;;;;6.30;99.70;;;;;;5050936;28;19912;-74
2022/04/08 03:22:57;;;;;;;;;;;6.30;99.90;;;;;;5047791;28;20004;-75
2022/04/08 03:25:23;;;;;;;;;;;6.10;99.90;;;;;;5050335;28;19916;-74
2022/04/08 03:27:48;;;;;;;;;;;6.10;99.90;;;;;;5050971;28;19909;-75
2022/04/08 03:30:14;;;;;;;;;;;6.00;99.90;;;;;;5050909;28;19909;-74
2022/04/08 03:32:39;;;;;;;;;;;6.20;99.90;;;;;;5050820;28;19909;-74
2022/04/08 03:35:05;;;;;;;;;;;6.30;99.60;;;;;;5050541;28;20285;-75
2022/04/08 03:37:31;;;;;;;;;;;6.30;99.50;;;;;;5050891;28;20340;-75
2022/04/08 03:39:56;;;;;;;;;;;6.20;99.30;;;;;;5050946;28;20407;-74
2022/04/08 03:42:22;;;;;;;;;;;6.20;99.40;;;;;;5050766;28;19909;-74
2022/04/08 03:44:49;;;;;;;;;;;6.20;99.60;;;;;;5050635;28;19912;-74
2022/04/08 03:47:14;;;;;;;;;;;6.20;99.90;;;;;;5050856;28;20173;-74
2022/04/08 03:49:40;;;;;;;;;;;5.90;99.90;;;;;;5050777;28;20010;-75
2022/04/08 03:52:06;;;;;;;;;;;5.90;99.90;;;;;;5044087;28;20370;-75
2022/04/08 03:54:31;;;;;;;;;;;5.90;99.90;;;;;;5050411;28;19990;-75
2022/04/08 03:56:56;;;;;;;;;;;6.00;99.90;;;;;;5051761;28;19962;-75
2022/04/08 03:59:22;;;;;;;;;;;6.00;99.90;;;;;;5050768;28;19909;-75
2022/04/08 04:01:49;;;;;;;;;;;6.00;99.90;;;;;;5050514;28;20281;-74
2022/04/08 04:04:15;;;;;;;;;;;6.10;99.90;;;;;;5053164;28;19971;-75
2022/04/08 04:06:40;;;;;;;;;;;6.20;99.50;;;;;;5054703;28;19908;-75
2022/04/08 04:09:06;;;;;;;;;;;6.40;99.00;;;;;;5054564;28;20382;-75
2022/04/08 04:11:33;;;;;;;;;;;6.30;99.00;;;;;;5054062;28;19909;-74
2022/04/08 04:13:59;;;;;;;;;;;6.30;99.10;;;;;;5054498;28;19978;-75
2022/04/08 04:16:25;;;;;;;;;;;6.30;98.50;;;;;;5055501;28;20358;-75
2022/04/08 04:18:50;;;;;;;;;;;6.30;99.00;;;;;;5055393;28;19966;-75
2022/04/08 04:21:16;;;;;;;;;;;6.10;99.90;;;;;;5053002;28;19954;-74
2022/04/08 04:23:41;;;;;;;;;;;6.00;99.90;;;;;;5053855;28;19909;-75
2022/04/08 04:26:07;;;;;;;;;;;6.10;99.90;;;;;;5054581;28;19909;-75
2022/04/08 04:28:33;;;;;;;;;;;6.10;99.90;;;;;;5055942;28;19909;-75
2022/04/08 04:31:04;;;;;;;;;;;6.10;99.90;;;;;;5054830;28;19909;-75
2022/04/08 04:33:32;;;;;;;;;;;6.10;99.90;;;;;;5054025;28;19967;-75
2022/04/08 04:35:58;;;;;;;;;;;6.00;99.90;;;;;;5054404;28;19915;-75
2022/04/08 04:38:23;;;;;;;;;;;5.90;99.90;;;;;;5054349;28;19999;-75
2022/04/08 04:40:49;;;;;;;;;;;5.80;99.90;;;;;;5054303;28;19916;-75
2022/04/08 04:43:15;;;;;;;;;;;5.80;99.90;;;;;;5053893;28;20058;-75
2022/04/08 04:45:41;;;;;;;;;;;5.90;99.90;;;;;;5054035;28;19987;-75
2022/04/08 04:48:07;;;;;;;;;;;5.70;99.90;;;;;;5054042;28;19959;-75
2022/04/08 04:50:32;;;;;;;;;;;5.80;99.90;;;;;;5053987;28;19962;-75
2022/04/08 04:52:58;;;;;;;;;;;5.80;99.90;;;;;;5050331;28;19956;-75
2022/04/08 04:55:23;;;;;;;;;;;5.80;99.90;;;;;;5053407;28;19962;-75
2022/04/08 04:57:49;;;;;;;;;;;5.90;99.90;;;;;;5054462;28;19916;-75
2022/04/08 05:00:16;;;;;;;;;;;5.80;99.90;;;;;;5053780;28;20022;-75
2022/04/08 05:02:42;;;;;;;;;;;5.80;99.90;;;;;;5049646;28;20047;-75
2022/04/08 05:05:08;;;;;;;;;;;5.70;99.90;;;;;;5053625;28;20015;-76
2022/04/08 05:07:33;;;;;;;;;;;5.60;99.90;;;;;;5053877;28;19935;-75
2022/04/08 05:09:59;;;;;;;;;;;5.60;99.90;;;;;;5053735;28;19916;-75
2022/04/08 05:12:24;;;;;;;;;;;5.60;99.90;;;;;;5053698;28;19959;-75
2022/04/08 05:14:50;;;;;;;;;;;5.60;99.90;;;;;;5052427;28;20127;-75
2022/04/08 05:17:15;;;;;;;;;;;5.60;99.90;;;;;;5053464;28;19912;-75
2022/04/08 05:19:41;;;;;;;;;;;5.60;99.90;;;;;;5047060;28;19909;-75
2022/04/08 05:22:06;;;;;;;;;;;5.60;99.90;;;;;;5053591;28;19958;-75
2022/04/08 05:24:32;;;;;;;;;;;5.50;99.90;;;;;;5052911;28;19912;-75
2022/04/08 05:26:57;;;;;;;;;;;5.50;99.90;;;;;;5053296;28;19952;-75
2022/04/08 05:29:24;;;;;;;;;;;5.60;99.90;;;;;;5053305;28;19909;-75
2022/04/08 05:31:49;;;;;;;;;;;5.70;99.90;;;;;;5052977;28;19913;-75
2022/04/08 05:34:15;;;;;;;;;;;5.70;99.90;;;;;;5053116;28;20007;-75
2022/04/08 05:36:40;;;;;;;;;;;5.70;99.90;;;;;;5053157;28;20262;-76
2022/04/08 05:39:06;;;;;;;;;;;5.70;99.90;;;;;;5052917;28;19909;-75
2022/04/08 05:41:31;;;;;;;;;;;5.80;99.90;;;;;;5052684;28;19909;-74
2022/04/08 05:43:57;;;;;;;;;;;5.80;99.90;;;;;;5052714;28;19970;-75
2022/04/08 05:46:22;;;;;;;;;;;5.80;99.90;;;;;;5052897;28;19988;-75
2022/04/08 05:48:48;;;;;;;;;;;5.80;99.90;;;;;;5052863;28;19915;-75
2022/04/08 05:51:13;;;;;;;;;;;5.80;99.90;;;;;;5052799;28;20003;-73
2022/04/08 05:53:39;;;;;;;;;;;5.80;99.90;;;;;;5051021;28;19908;-75
2022/04/08 05:56:04;;;;;;;;;;;5.80;99.90;;;;;;5052625;28;19919;-75
2022/04/08 05:58:30;;;;;;;;;;;5.90;99.90;;;;;;5052873;28;19913;-74
2022/04/08 06:00:56;;;;;;;;;;;5.90;99.90;;;;;;5052586;28;19979;-74
2022/04/08 06:03:21;;;;;;;;;;;5.90;99.90;;;;;;5052256;28;20007;-75
2022/04/08 06:05:47;;;;;;;;;;;5.80;99.90;;;;;;5052553;28;19919;-75
2022/04/08 06:08:12;;;;;;;;;;;5.90;99.90;;;;;;5052467;28;19913;-75
2022/04/08 06:10:38;;;;;;;;;;;5.90;99.90;;;;;;5052462;28;19909;-74
2022/04/08 06:13:03;;;;;;;;;;;5.90;99.90;;;;;;5049883;28;20432;-75
2022/04/08 06:15:31;;;;;;;;;;;5.80;99.90;;;;;;5050129;28;19916;-75
2022/04/08 06:17:56;;;;;;;;;;;5.80;99.90;;;;;;5050949;28;20358;-75
2022/04/08 06:20:22;;;;;;;;;;;5.80;99.90;;;;;;5050365;28;19909;-75
2022/04/08 06:22:48;;;;;;;;;;;5.80;99.90;;;;;;5046925;28;19909;-75
2022/04/08 06:25:18;;;;;;;;;;;5.80;99.90;;;;;;5048617;28;20772;-75
2022/04/08 06:27:47;;;;;;;;;;;5.70;99.90;;;;;;5044983;28;19944;-74
2022/04/08 06:30:14;;;;;;;;;;;5.60;99.90;;;;;;5051643;28;20433;-75
2022/04/08 06:32:41;;;;;;;;;;;5.60;99.90;;;;;;5052037;28;20328;-77
2022/04/08 06:35:06;;;;;;;;;;;5.50;99.90;;;;;;5051919;28;19909;-76
2022/04/08 06:37:32;;;;;;;;;;;5.60;99.90;;;;;;5052069;28;19961;-74
2022/04/08 06:40:02;;;;;;;;;;;5.50;99.90;;;;;;5051534;28;20369;-74
2022/04/08 06:42:27;;;;;;;;;;;5.40;99.90;;;;;;5048763;28;19909;-74
2022/04/08 06:44:53;;;;;;;;;;;5.30;99.90;;;;;;5050236;28;19916;-73
2022/04/08 06:47:18;;;;;;;;;;;5.30;99.90;;;;;;5052684;28;19975;-74
2022/04/08 06:49:46;;;;;;;;;;;5.30;99.90;;;;;;5051801;28;19916;-74
2022/04/08 06:52:12;;;;;;;;;;;5.30;99.90;;;;;;5045138;28;20347;-74
2022/04/08 06:54:38;;;;;;;;;;;5.30;99.90;;;;;;5044545;28;19932;-74
2022/04/08 06:57:04;;;;;;;;;;;5.30;99.90;;;;;;5051084;28;20294;-74
2022/04/08 06:59:29;;;;;;;;;;;5.30;99.90;;;;;;5051412;28;19935;-74
2022/04/08 07:01:55;;;;;;;;;;;5.40;99.90;;;;;;5051302;28;20366;-74
2022/04/08 07:04:20;;;;;;;;;;;5.40;99.90;;;;;;5051099;28;19919;-74
2022/04/08 07:06:46;;;;;;;;;;;5.30;99.90;;;;;;5051328;28;19955;-74
2022/04/08 07:09:11;;;;;;;;;;;5.30;99.90;;;;;;5051305;28;19956;-73
2022/04/08 07:11:37;;;;;;;;;;;5.40;99.90;;;;;;5050927;28;19915;-74
2022/04/08 07:14:04;;;;;;;;;;;5.40;99.90;;;;;;5050940;28;19908;-74
2022/04/08 07:16:29;;;;;;;;;;;5.50;99.90;;;;;;5051113;28;19912;-74
2022/04/08 07:18:55;;;;;;;;;;;5.50;99.90;;;;;;5051016;28;19921;-74
2022/04/08 07:21:22;;;;;;;;;;;5.50;99.90;;;;;;5049259;28;19979;-74
2022/04/08 07:23:48;;;;;;;;;;;5.60;99.90;;;;;;5048621;28;19970;-74
2022/04/08 07:26:13;;;;;;;;;;;5.70;99.90;;;;;;5050644;28;20377;-73
2022/04/08 07:28:39;;;;;;;;;;;5.70;99.90;;;;;;5051203;28;19909;-73
2022/04/08 07:31:04;;;;;;;;;;;5.70;99.90;;;;;;5048673;28;20405;-74
2022/04/08 07:33:30;;;;;;;;;;;5.70;99.90;;;;;;5048050;28;20324;-73
2022/04/08 07:35:58;;;;;;;;;;;5.70;99.90;;;;;;5050878;28;19913;-74
2022/04/08 07:38:24;;;;;;;;;;;5.70;99.90;;;;;;5050712;28;19916;-74
2022/04/08 07:40:50;;;;;;;;;;;5.70;99.90;;;;;;5050596;28;19912;-74
2022/04/08 07:43:16;;;;;;;;;;;5.80;99.90;;;;;;5049340;28;19913;-74
2022/04/08 07:45:42;;;;;;;;;;;5.80;99.90;;;;;;5050753;28;20396;-74
2022/04/08 07:48:08;;;;;;;;;;;5.90;99.90;;;;;;5051065;28;19941;-74
2022/04/08 07:50:37;;;;;;;;;;;6.10;99.90;;;;;;5050888;28;20389;-74
2022/04/08 07:53:03;;;;;;;;;;;6.30;99.90;;;;;;5047201;28;20135;-74
2022/04/08 07:55:29;;;;;;;;;;;6.10;99.90;;;;;;5050077;28;20102;-74
2022/04/08 07:57:54;;;;;;;;;;;6.40;99.90;;;;;;5051072;28;19995;-74
2022/04/08 08:00:21;;;;;;;;;;;6.40;99.90;;;;;;5049575;28;19948;-73
2022/04/08 08:02:47;;;;;;;;;;;6.70;99.90;;;;;;5060470;28;19908;-73
2022/04/08 08:05:13;;;;;;;;;;;6.70;99.90;;;;;;5050596;28;20008;-74
2022/04/08 08:07:46;;;;;;;;;;;6.50;99.90;;;;;;5050830;28;19952;-74
2022/04/08 08:10:22;;;;;;;;;;;6.40;99.90;;;;;;5050452;28;19913;-74
2022/04/08 08:12:48;;;;;;;;;;;6.60;99.90;;;;;;5050678;28;19916;-74
2022/04/08 08:15:15;;;;;;;;;;;6.80;99.90;;;;;;5050537;28;19928;-73
2022/04/08 08:17:41;;;;;;;;;;;6.80;99.90;;;;;;5049357;28;19947;-74
2022/04/08 08:20:07;;;;;;;;;;;6.80;99.90;;;;;;5049161;28;19920;-74
2022/04/08 08:22:33;;;;;;;;;;;6.70;99.90;;;;;;5052880;28;20004;-74
2022/04/08 08:24:59;;;;;;;;;;;6.70;99.90;;;;;;5049829;28;20003;-74
2022/04/08 08:27:24;;;;;;;;;;;6.80;99.90;;;;;;5050521;28;20392;-73
2022/04/08 08:29:50;;;;;;;;;;;6.90;99.90;;;;;;5050497;28;19909;-74
2022/04/08 08:32:15;;;;;;;;;;;6.90;99.90;;;;;;5050417;28;19913;-74
2022/04/08 08:34:41;;;;;;;;;;;7.00;99.90;;;;;;5050467;28;20096;-74
2022/04/08 08:37:06;;;;;;;;;;;7.20;99.90;;;;;;5050304;28;19963;-73
2022/04/08 08:39:33;;;;;;;;;;;7.30;99.90;;;;;;5050494;28;19916;-74
2022/04/08 08:41:59;;;;;;;;;;;7.20;99.90;;;;;;5050319;28;19908;-74
2022/04/08 08:44:24;;;;;;;;;;;7.00;99.90;;;;;;5049010;28;19919;-74
2022/04/08 08:46:51;;;;;;;;;;;6.90;99.90;;;;;;5056126;28;20003;-74
2022/04/08 08:49:19;;;;;;;;;;;6.80;99.90;;;;;;5050736;28;20362;-74
2022/04/08 08:51:49;;;;;;;;;;;7.10;99.90;;;;;;5053054;28;19909;-74
2022/04/08 08:54:15;;;;;;;;;;;7.10;99.90;;;;;;5051120;28;19913;-74
2022/04/08 08:56:40;;;;;;;;;;;7.20;99.90;;;;;;5053685;28;19916;-74
2022/04/08 08:59:06;;;;;;;;;;;7.20;99.90;;;;;;5053687;28;19909;-74
2022/04/08 09:01:31;;;;;;;;;;;7.20;99.90;;;;;;5053030;28;19908;-74
2022/04/08 09:03:57;;;;;;;;;;;7.50;99.90;;;;;;5053306;28;19909;-74
2022/04/08 09:06:22;;;;;;;;;;;7.10;99.90;;;;;;5053271;28;19966;-74
2022/04/08 09:08:58;;;;;;;;;;;6.90;99.90;;;;;;5051971;28;20397;-74
2022/04/08 09:11:24;;;;;;;;;;;7.20;99.90;;;;;;5053215;28;20332;-72
2022/04/08 09:13:50;;;;;;;;;;;7.60;99.90;;;;;;5053263;28;19916;-74
2022/04/08 09:16:24;;;;;;;;;;;7.70;99.90;;;;;;5053500;28;20019;-74
2022/04/08 09:18:49;;;;;;;;;;;8.10;99.90;;;;;;5053214;28;20012;-74
2022/04/08 09:21:22;;;;;;;;;;;7.80;99.90;;;;;;5046021;28;19999;-74
2022/04/08 09:23:47;;;;;;;;;;;7.50;99.90;;;;;;5048357;28;20410;-74
2022/04/08 09:26:14;;;;;;;;;;;7.50;99.90;;;;;;5052985;28;20008;-72
2022/04/08 09:28:41;;;;;;;;;;;7.60;99.90;;;;;;5053366;28;19909;-73
2022/04/08 09:31:15;;;;;;;;;;;7.50;99.90;;;;;;5053395;28;20282;-73
2022/04/08 09:33:46;;;;;;;;;;;7.30;99.90;;;;;;5053341;28;19912;-73
2022/04/08 09:36:12;;;;;;;;;;;7.20;99.90;;;;;;5053275;28;19982;-72
2022/04/08 09:38:47;;;;;;;;;;;7.10;99.90;;;;;;5053168;28;20428;-72
2022/04/08 09:41:12;;;;;;;;;;;7.10;99.90;;;;;;5052978;28;19912;-72
2022/04/08 09:43:39;;;;;;;;;;;7.30;99.90;;;;;;5047843;28;20286;-73
2022/04/08 09:46:18;;;;;;;;;;;7.30;99.90;;;;;;5052535;28;19983;-73
2022/04/08 09:48:44;;;;;;;;;;;7.30;99.90;;;;;;5050914;28;19916;-72
2022/04/08 09:51:13;;;;;;;;;;;7.40;99.90;;;;;;5052746;28;19909;-72
2022/04/08 09:53:41;;;;;;;;;;;7.50;99.90;;;;;;5052220;28;19959;-73
2022/04/08 09:56:10;;;;;;;;;;;7.40;99.90;;;;;;5055092;28;19923;-72
2022/04/08 09:58:36;;;;;;;;;;;7.20;99.90;;;;;;5052592;28;20104;-72
2022/04/08 10:01:02;;;;;;;;;;;7.00;99.90;;;;;;5050370;28;19952;-72
2022/04/08 10:03:28;;;;;;;;;;;7.10;99.90;;;;;;5052091;28;19994;-73
2022/04/08 10:05:53;;;;;;;;;;;7.10;99.90;;;;;;5052516;28;20012;-72
2022/04/08 10:08:19;;;;;;;;;;;7.10;99.90;;;;;;5052264;28;19915;-72
2022/04/08 10:10:54;;;;;;;;;;;6.70;99.90;;;;;;5052143;28;19995;-72
2022/04/08 10:13:24;;;;;;;;;;;6.70;99.90;;;;;;5051892;28;19916;-72
2022/04/08 10:15:49;;;;;;;;;;;6.80;99.90;;;;;;5052373;28;20004;-72
2022/04/08 10:18:15;;;;;;;;;;;7.00;99.90;;;;;;5051161;28;20340;-72
2022/04/08 10:20:40;;;;;;;;;;;6.70;99.90;;;;;;5045885;28;20316;-72
2022/04/08 10:23:08;;;;;;;;;;;6.70;99.90;;;;;;5048746;28;20365;-72
2022/04/08 10:25:46;;;;;;;;;;;7.00;99.90;;;;;;5051388;28;19916;-72
2022/04/08 10:28:12;;;;;;;;;;;7.10;99.90;;;;;;5052139;28;19955;-73
2022/04/08 10:30:55;;;;;;;;;;;7.10;99.90;;;;;;5051797;28;19912;-72
2022/04/08 10:33:27;;;;;;;;;;;7.00;99.90;;;;;;5046223;28;19908;-73
2022/04/08 10:35:54;;;;;;;;;;;7.10;99.90;;;;;;5051729;28;19932;-73
2022/04/08 10:38:19;;;;;;;;;;;7.10;99.90;;;;;;5043125;28;19909;-73
2022/04/08 10:40:55;;;;;;;;;;;7.00;99.90;;;;;;5051772;28;20278;-73
2022/04/08 10:43:21;;;;;;;;;;;7.00;99.90;;;;;;5049744;28;19915;-73
2022/04/08 10:45:56;;;;;;;;;;;6.90;99.90;;;;;;5051569;28;19912;-73
2022/04/08 10:48:22;;;;;;;;;;;7.00;99.90;;;;;;5051425;28;19940;-73
2022/04/08 10:50:47;;;;;;;;;;;7.00;99.90;;;;;;5051648;28;20301;-73
2022/04/08 10:53:13;;;;;;;;;;;7.10;99.90;;;;;;5046499;28;19961;-73
2022/04/08 10:55:46;;;;;;;;;;;7.20;99.90;;;;;;5053993;28;20285;-73
2022/04/08 10:58:13;;;;;;;;;;;7.00;99.90;;;;;;5052042;28;19915;-73
2022/04/08 11:00:39;;;;;;;;;;;6.90;99.90;;;;;;5051763;28;19909;-73
2022/04/08 11:03:04;;;;;;;;;;;6.90;99.90;;;;;;5050983;28;19908;-72
2022/04/08 11:05:35;;;;;;;;;;;6.70;99.90;;;;;;5051307;28;19913;-73
2022/04/08 11:08:01;;;;;;;;;;;6.90;99.90;;;;;;5051460;28;19993;-73
2022/04/08 11:10:27;;;;;;;;;;;6.80;99.90;;;;;;5051272;28;19913;-73
2022/04/08 11:12:53;;;;;;;;;;;6.90;99.90;;;;;;5050355;28;20005;-73
2022/04/08 11:15:23;;;;;;;;;;;7.10;99.90;;;;;;5046350;28;20000;-72
2022/04/08 11:17:49;;;;;;;;;;;7.20;99.90;;;;;;5058208;28;19943;-73
2022/04/08 11:20:16;;;;;;;;;;;7.00;99.90;;;;;;5049946;28;20366;-73
2022/04/08 11:22:42;;;;;;;;;;;6.90;99.90;;;;;;5050895;28;19986;-73
2022/04/08 11:25:18;;;;;;;;;;;6.80;99.90;;;;;;5050340;28;19916;-73
2022/04/08 11:27:43;;;;;;;;;;;6.80;99.90;;;;;;5051113;28;20320;-73
2022/04/08 11:30:09;;;;;;;;;;;6.90;99.90;;;;;;5050808;28;19913;-73
2022/04/08 11:32:34;;;;;;;;;;;6.70;99.90;;;;;;5051094;28;20460;-73
2022/04/08 11:35:09;;;;;;;;;;;6.50;99.90;;;;;;5050734;28;19909;-73
2022/04/08 11:37:35;;;;;;;;;;;6.50;99.90;;;;;;5050904;28;19916;-73
2022/04/08 11:40:00;;;;;;;;;;;6.60;99.90;;;;;;5050951;28;19909;-73
2022/04/08 11:42:26;;;;;;;;;;;6.80;99.90;;;;;;5050567;28;19916;-72
2022/04/08 11:44:52;;;;;;;;;;;6.90;99.90;;;;;;5042325;28;19917;-73
2022/04/08 11:47:18;;;;;;;;;;;7.00;99.90;;;;;;5055360;28;19916;-73
2022/04/08 11:49:44;;;;;;;;;;;6.90;99.90;;;;;;5050724;28;20004;-73
2022/04/08 11:52:09;;;;;;;;;;;6.80;99.90;;;;;;5050609;28;19948;-74
2022/04/08 11:54:36;;;;;;;;;;;6.80;99.90;;;;;;5049463;28;20385;-73
2022/04/08 11:57:03;;;;;;;;;;;6.70;99.90;;;;;;5050744;28;20270;-73
2022/04/08 11:59:28;;;;;;;;;;;6.60;99.90;;;;;;5051165;28;19916;-73
2022/04/08 12:01:57;;;;;;;;;;;6.70;99.90;;;;;;5049385;28;19909;-74
2022/04/08 12:04:23;;;;;;;;;;;6.70;99.90;;;;;;5050105;28;19913;-73
2022/04/08 12:06:49;;;;;;;;;;;6.60;99.90;;;;;;5050665;28;19915;-73
2022/04/08 12:09:16;;;;;;;;;;;6.80;99.90;;;;;;5050691;28;20050;-73
2022/04/08 12:11:42;;;;;;;;;;;6.90;99.90;;;;;;5050559;28;19955;-73
2022/04/08 12:14:09;;;;;;;;;;;6.60;99.90;;;;;;5050331;28;19915;-72
2022/04/08 12:16:35;;;;;;;;;;;6.50;99.90;;;;;;5050438;28;19917;-72
2022/04/08 12:19:02;;;;;;;;;;;6.40;99.90;;;;;;5050313;28;19987;-73
2022/04/08 12:21:28;;;;;;;;;;;6.30;99.90;;;;;;5048805;28;19987;-73
2022/04/08 12:23:55;;;;;;;;;;;6.40;99.90;;;;;;5050795;28;20432;-73
2022/04/08 12:26:24;;;;;;;;;;;6.30;99.90;;;;;;5054076;28;19999;-73
2022/04/08 12:28:49;;;;;;;;;;;6.50;99.90;;;;;;5054204;28;19913;-73
2022/04/08 12:31:17;;;;;;;;;;;6.50;99.90;;;;;;5054195;28;20046;-73
2022/04/08 12:33:43;;;;;;;;;;;6.50;99.90;;;;;;5054080;28;20397;-73
2022/04/08 12:36:09;;;;;;;;;;;6.60;99.90;;;;;;5054286;28;19909;-74
2022/04/08 12:38:38;;;;;;;;;;;6.50;99.90;;;;;;5054195;28;19916;-73
2022/04/08 12:41:04;;;;;;;;;;;6.40;99.90;;;;;;5054212;28;20285;-74
2022/04/08 12:43:30;;;;;;;;;;;6.40;99.90;;;;;;5050784;28;20040;-74
2022/04/08 12:45:55;;;;;;;;;;;6.40;99.90;;;;;;5054393;28;19916;-73
2022/04/08 12:48:21;;;;;;;;;;;6.40;99.90;;;;;;5046760;28;20378;-74
2022/04/08 12:50:46;;;;;;;;;;;6.30;99.90;;;;;;5054089;28;19909;-73
2022/04/08 12:53:12;;;;;;;;;;;6.40;99.90;;;;;;5053664;28;19909;-74
2022/04/08 12:55:37;;;;;;;;;;;6.40;99.90;;;;;;5054123;28;20007;-74
2022/04/08 12:58:03;;;;;;;;;;;6.60;99.90;;;;;;5053855;28;19955;-74
2022/04/08 13:00:29;;;;;;;;;;;6.60;99.90;;;;;;5053797;28;19912;-73
2022/04/08 13:02:55;;;;;;;;;;;6.50;99.90;;;;;;5053620;28;19955;-74
2022/04/08 13:05:20;;;;;;;;;;;6.40;99.90;;;;;;5053279;28;19913;-73
2022/04/08 13:07:46;;;;;;;;;;;6.40;99.90;;;;;;5053422;28;19913;-74
2022/04/08 13:10:11;;;;;;;;;;;6.50;99.90;;;;;;5053326;28;19962;-73
2022/04/08 13:12:37;;;;;;;;;;;6.40;99.90;;;;;;5053247;28;19909;-74
2022/04/08 13:15:03;;;;;;;;;;;6.40;99.90;;;;;;5053019;28;19916;-74
2022/04/08 13:17:29;;;;;;;;;;;6.40;99.90;;;;;;5058353;28;20393;-74
2022/04/08 13:19:54;;;;;;;;;;;6.40;99.90;;;;;;5051882;28;20003;-74
2022/04/08 13:22:19;;;;;;;;;;;6.30;99.90;;;;;;5052690;28;19908;-74
2022/04/08 13:24:45;;;;;;;;;;;6.30;99.90;;;;;;5052879;28;19916;-74
2022/04/08 13:27:10;;;;;;;;;;;6.20;99.90;;;;;;5053157;28;19909;-74
2022/04/08 13:29:36;;;;;;;;;;;6.20;99.90;;;;;;5053179;28;19916;-73
2022/04/08 13:32:01;;;;;;;;;;;6.20;99.90;;;;;;5052838;28;19909;-73
2022/04/08 13:34:27;;;;;;;;;;;6.20;99.90;;;;;;5052815;28;19913;-73
2022/04/08 13:36:52;;;;;;;;;;;6.10;99.90;;;;;;5052224;28;20336;-74
2022/04/08 13:39:19;;;;;;;;;;;6.20;99.90;;;;;;5053243;28;19913;-73
2022/04/08 13:41:45;;;;;;;;;;;6.30;99.90;;;;;;5051523;28;19959;-74
2022/04/08 13:44:11;;;;;;;;;;;6.20;99.90;;;;;;5049053;28;20303;-73
2022/04/08 13:46:38;;;;;;;;;;;6.20;99.90;;;;;;5049835;28;19913;-73
2022/04/08 13:49:03;;;;;;;;;;;6.20;99.90;;;;;;5052659;28;20031;-73
2022/04/08 13:51:29;;;;;;;;;;;6.10;99.90;;;;;;5052019;28;19960;-73
2022/04/08 13:53:54;;;;;;;;;;;6.10;99.90;;;;;;5052748;28;19966;-73
2022/04/08 13:56:20;;;;;;;;;;;6.20;99.90;;;;;;5052407;28;20392;-75
2022/04/08 13:58:45;;;;;;;;;;;6.30;99.90;;;;;;5052667;28;19920;-73
2022/04/08 14:01:11;;;;;;;;;;;6.40;99.90;;;;;;5050843;28;20304;-73
2022/04/08 14:03:36;;;;;;;;;;;6.50;99.90;;;;;;5052304;28;19909;-73
2022/04/08 14:06:02;;;;;;;;;;;6.60;99.90;;;;;;5052825;28;19916;-73
2022/04/08 14:08:27;;;;;;;;;;;6.90;99.90;;;;;;5045692;28;19917;-73
2022/04/08 14:10:53;;;;;;;;;;;7.30;99.90;;;;;;5052393;28;19913;-73
2022/04/08 14:13:18;;;;;;;;;;;7.80;99.90;;;;;;5052069;28;20008;-73
2022/04/08 14:15:44;;;;;;;;;;;8.20;99.90;;;;;;5047231;28;19923;-72
2022/04/08 14:18:10;;;;;;;;;;;8.50;99.90;;;;;;5048287;28;19960;-73
2022/04/08 14:20:35;;;;;;;;;;;8.70;99.90;;;;;;5046819;28;19912;-73
2022/04/08 14:23:01;;;;;;;;;;;8.80;99.90;;;;;;5040471;28;19913;-73
2022/04/08 14:25:26;;;;;;;;;;;9.00;99.90;;;;;;5032970;28;19921;-73